메인 페이지
METAR-TAF:

METAR-TAF

공항 :

소피아, 불가리아

위도: 42-39N, 경도: 023-23E, 고도: 586m

현재 날씨관측

예보는 25분 전, 13:30시(UTC)에 발표되었습니다.
12kt
온도 5°C
습도 93%
기압 1017 hPa
시정 10km 이상
고도 1300ft 상공 구름 보통
고도 2600ft 상공 구름 많음
고도 4100ft 상공 흐림
약한이슬비

METAR: LBSF 191330Z 10012KT 9999 -DZ SCT013 BKN026 OVC041 05/04 Q1017 R99/29//95 NOSIG

시각: 15:55 (13:55 UTC)

예보

예보는 2 시간 55분 전, 11:00시(UTC)에 발표되었습니다.
예보 대상 시간: 19일 12시부터 20일 12시까지 (UTC)
동남동10kt
시정 10km 이상
고도 600ft 상공 구름 보통
고도 2000ft 상공 구름 많음
일시적
19일 12시부터 19일 17시까지 (UTC)
시정: 5000m
고도 500ft 상공 구름 많음
고도 1500ft 상공 흐림
확률 40%
19일 14시부터 19일 17시까지 (UTC)
시정: 4000m
고도 500ft 상공 구름 많음
고도 1000ft 상공 흐림
눈, 비

TAF: LBSF 191100Z 1912/2012 11010KT 9999 SCT006 BKN020 TEMPO 1912/1917 5000 RA BKN005 OVC015 PROB40 1914/1917 4000 SNRA BKN005 OVC010

4,000개 이상의 공항 관측 자료 및 예보 (METAR 및 TAF 보고).

지도상에서 검색 가능한 기상관측소가 노란 점과 빨간 점으로 표시되어 있습니다.

기상관측소 명을 보려면 표시 위로 마우스를 이동하세요.

날씨 관측과 예보를 보려면 클릭하세요.

지도 변경 : 확대하려면 엑스 표시가 있는 녹색 버튼, 축소하려면 빼기 표시가 있는 녹색 버튼, 다음 페이지의 지도를 보려면 녹색 화살표를 클릭하세요.


METAR-TAF: